Time;durP1;ratioP1;P1;durP2;ratioP2;P2;SDS_P1;SDS_P2;PMS_P1;PMS_P2;Temp;Humidity;BMP_temperature;BMP_pressure;BME280_temperature;BME280_humidity;BME280_pressure;Samples;Min_cycle;Max_cycle;Signal;HPM_P1;HPM_P2
2021/03/26 00:00:37;;;;;;;1.08;1.08;;;;;;;-1.27;71.48;93812.50;5038427;28;20032;-48
2021/03/26 00:03:06;;;;;;;1.73;1.63;;;;;;;-1.52;71.50;93813.00;5031973;28;20433;-50
2021/03/26 00:05:33;;;;;;;0.70;0.70;;;;;;;-1.61;72.19;93816.50;5041122;28;20028;-47
2021/03/26 00:07:58;;;;;;;0.77;0.77;;;;;;;-1.89;72.26;93813.22;5040576;28;20502;-51
2021/03/26 00:10:24;;;;;;;0.40;0.40;;;;;;;-1.87;72.80;93813.53;5038408;28;20112;-46
2021/03/26 00:12:49;;;;;;;0.30;0.30;;;;;;;-2.21;73.39;93814.00;5033263;28;20032;-49
2021/03/26 00:15:16;;;;;;;1.10;0.95;;;;;;;-2.02;72.88;93811.94;5042262;28;20021;-47
2021/03/26 00:17:41;;;;;;;1.52;1.40;;;;;;;-2.02;72.15;93799.19;5042879;28;20094;-47
2021/03/26 00:20:08;;;;;;;1.75;1.33;;;;;;;-1.83;71.74;93808.69;5035728;28;20037;-50
2021/03/26 00:22:33;;;;;;;1.95;1.85;;;;;;;-1.78;72.39;93818.13;5035925;28;20028;-47
2021/03/26 00:24:58;;;;;;;1.65;1.48;;;;;;;-1.89;71.57;93817.88;5042906;28;20032;-47
2021/03/26 00:27:24;;;;;;;2.10;1.95;;;;;;;-2.01;72.51;93816.91;5030900;28;20034;-47
2021/03/26 00:29:49;;;;;;;0.98;0.98;;;;;;;-1.95;73.32;93817.75;5047449;28;20029;-47
2021/03/26 00:32:15;;;;;;;1.05;1.05;;;;;;;-1.82;72.68;93822.97;5046783;28;20032;-46
2021/03/26 00:34:40;;;;;;;1.30;1.30;;;;;;;-1.64;71.58;93812.00;5026715;28;20023;-52
2021/03/26 00:37:06;;;;;;;1.48;1.42;;;;;;;-1.59;71.27;93819.50;5028245;28;20021;-46
2021/03/26 00:39:32;;;;;;;1.17;1.17;;;;;;;-1.68;71.20;93828.44;5027332;28;20018;-52
2021/03/26 00:41:57;;;;;;;0.80;0.80;;;;;;;-1.86;70.71;93825.06;5034296;28;20052;-48
2021/03/26 00:44:22;;;;;;;8.25;2.17;;;;;;;-2.24;71.56;93831.13;5032711;28;20038;-51
2021/03/26 00:46:48;;;;;;;2.38;2.17;;;;;;;-2.22;72.25;93823.31;5041212;28;20033;-47
2021/03/26 00:49:13;;;;;;;2.80;2.60;;;;;;;-2.31;72.27;93821.41;5030388;28;20494;-49
2021/03/26 00:51:39;;;;;;;1.88;1.77;;;;;;;-2.42;72.42;93821.13;5044043;28;20021;-46
2021/03/26 00:54:06;;;;;;;1.48;1.38;;;;;;;-2.35;73.12;93822.75;5038931;28;20025;-48
2021/03/26 00:56:31;;;;;;;0.63;0.60;;;;;;;-2.28;72.56;93822.44;5039139;28;20532;-44
2021/03/26 00:58:57;;;;;;;0.28;0.28;;;;;;;-2.38;72.12;93829.84;5045597;28;20084;-44
2021/03/26 01:01:22;;;;;;;0.30;0.30;;;;;;;-2.18;72.07;93823.88;5033934;28;20035;-44
2021/03/26 01:03:48;;;;;;;9.35;1.80;;;;;;;-2.27;71.65;93810.41;5050316;28;20036;-48
2021/03/26 01:06:14;;;;;;;0.52;0.52;;;;;;;-2.01;70.71;93825.00;5043723;28;20261;-47
2021/03/26 01:08:40;;;;;;;1.60;1.50;;;;;;;-2.08;70.84;93830.03;5037592;28;20029;-48
2021/03/26 01:11:14;;;;;;;0.40;0.40;;;;;;;-2.12;70.79;93830.16;5046602;28;20056;-47
2021/03/26 01:13:40;;;;;;;0.63;0.63;;;;;;;-2.07;70.09;93818.72;5035085;28;20025;-49
2021/03/26 01:16:06;;;;;;;1.02;1.02;;;;;;;-2.07;70.20;93828.78;5042093;28;20034;-46
2021/03/26 01:18:35;;;;;;;2.63;2.42;;;;;;;-2.13;69.49;93834.09;5041913;28;20032;-46
2021/03/26 01:21:02;;;;;;;0.47;0.47;;;;;;;-2.04;69.50;93833.31;5034618;28;20037;-46
2021/03/26 01:23:28;;;;;;;0.95;0.90;;;;;;;-1.96;68.55;93832.50;5046649;28;20037;-47
2021/03/26 01:25:54;;;;;;;1.42;1.33;;;;;;;-2.16;69.12;93832.28;5036657;28;20493;-45
2021/03/26 01:28:23;;;;;;;0.90;0.82;;;;;;;-2.14;69.47;93831.84;5039994;28;20421;-46
2021/03/26 01:30:50;;;;;;;3.30;0.90;;;;;;;-2.21;69.01;93827.53;5044169;28;20025;-46
2021/03/26 01:33:17;;;;;;;0.80;0.80;;;;;;;-2.37;69.89;93834.03;5033527;28;20029;-44
2021/03/26 01:35:43;;;;;;;1.30;1.00;;;;;;;-2.37;70.08;93825.19;5045057;28;20037;-45
2021/03/26 01:38:08;;;;;;;0.55;0.55;;;;;;;-2.58;70.72;93835.03;5038494;28;20049;-48
2021/03/26 01:40:48;;;;;;;0.40;0.40;;;;;;;-2.61;69.94;93835.91;5038033;28;20048;-45
2021/03/26 01:43:24;;;;;;;0.40;0.40;;;;;;;-2.81;70.33;93832.19;5046412;28;20088;-46
2021/03/26 01:45:51;;;;;;;1.00;1.00;;;;;;;-2.71;70.29;93844.50;5036079;28;20025;-46
2021/03/26 01:48:26;;;;;;;1.10;1.10;;;;;;;-2.86;70.33;93843.63;5039169;28;20034;-44
2021/03/26 01:50:53;;;;;;;0.20;0.20;;;;;;;-2.77;70.58;93835.53;5044320;28;20063;-46
2021/03/26 01:53:19;;;;;;;0.30;0.30;;;;;;;-2.73;70.83;93842.25;5033068;28;20029;-44
2021/03/26 01:55:46;;;;;;;0.90;0.82;;;;;;;-2.80;71.22;93839.88;5043267;28;20033;-46
2021/03/26 01:58:15;;;;;;;0.93;0.93;;;;;;;-2.73;70.16;93836.84;5038489;28;20096;-47
2021/03/26 02:00:51;;;;;;;0.70;0.70;;;;;;;-2.87;70.34;93856.38;5036609;28;20561;-46
2021/03/26 02:03:27;;;;;;;0.93;0.93;;;;;;;-2.76;70.41;93848.56;5044891;28;20412;-44
2021/03/26 02:05:54;;;;;;;0.60;0.60;;;;;;;-2.59;69.34;93852.44;5042948;28;20037;-46
2021/03/26 02:08:23;;;;;;;0.30;0.30;;;;;;;-2.92;70.90;93857.00;5038400;28;20029;-43
2021/03/26 02:10:49;;;;;;;0.60;0.60;;;;;;;-3.04;70.95;93863.31;5043469;28;20033;-46
2021/03/26 02:13:23;;;;;;;0.30;0.30;;;;;;;-3.36;71.25;93859.28;5032830;28;20422;-44
2021/03/26 02:15:49;;;;;;;0.30;0.30;;;;;;;-3.49;71.17;93861.38;5042507;28;20064;-46
2021/03/26 02:18:24;;;;;;;0.30;0.30;;;;;;;-3.54;71.70;93847.72;5037464;28;20033;-45
2021/03/26 02:20:53;;;;;;;0.22;0.22;;;;;;;-3.49;71.88;93866.00;5035051;28;20022;-46
2021/03/26 02:23:22;;;;;;;0.38;0.38;;;;;;;-3.61;71.48;93866.88;5045940;28;20028;-44
2021/03/26 02:25:47;;;;;;;;;;;;;;;-3.47;72.41;93864.38;5035217;28;20032;-44
2021/03/26 02:28:14;;;;;;;0.20;0.20;;;;;;;-3.53;72.10;93862.72;5040117;28;19913;-46
2021/03/26 02:30:44;;;;;;;0.50;0.50;;;;;;;-3.44;72.06;93863.47;5042194;28;20061;-47
2021/03/26 02:33:10;;;;;;;1.95;1.85;;;;;;;-3.22;71.94;93857.91;5032656;28;20036;-45
2021/03/26 02:35:38;;;;;;;0.25;0.25;;;;;;;-3.26;70.73;93860.78;5045129;28;20025;-48
2021/03/26 02:38:08;;;;;;;1.85;1.75;;;;;;;-3.12;69.07;93868.25;5036949;28;20021;-45
2021/03/26 02:40:38;;;;;;;1.35;1.35;;;;;;;-3.21;69.43;93862.88;5035872;28;20037;-44
2021/03/26 02:43:19;;;;;;;2.08;1.90;;;;;;;-3.04;69.33;93878.75;5045279;28;20029;-43
2021/03/26 02:45:54;;;;;;;2.08;1.98;;;;;;;-3.27;69.07;93870.06;5027980;28;20032;-44
2021/03/26 02:48:27;;;;;;;2.83;2.63;;;;;;;-3.33;69.27;93877.25;5034481;28;20037;-46
2021/03/26 02:51:03;;;;;;;0.77;0.77;;;;;;;-3.46;69.30;93876.66;5027717;28;20034;-44
2021/03/26 02:53:36;;;;;;;3.75;1.75;;;;;;;-3.58;69.70;93879.50;5038086;28;20060;-46
2021/03/26 02:56:10;;;;;;;0.43;0.43;;;;;;;-3.74;69.43;93866.25;5026789;28;20134;-46
2021/03/26 02:58:39;;;;;;;0.95;0.95;;;;;;;-3.66;68.24;93875.59;5039524;28;20432;-45
2021/03/26 03:01:11;;;;;;;0.40;0.40;;;;;;;-3.58;68.63;93885.63;5031305;28;20026;-43
2021/03/26 03:03:37;;;;;;;0.30;0.30;;;;;;;-3.75;68.67;93881.72;5028361;28;20026;-46
2021/03/26 03:06:10;;;;;;;0.65;0.60;;;;;;;-3.73;68.38;93871.22;5035047;28;20033;-48
2021/03/26 03:08:37;;;;;;;3.65;3.38;;;;;;;-3.78;69.55;93884.53;5035305;28;20029;-46
2021/03/26 03:11:10;;;;;;;8.30;2.35;;;;;;;-3.57;69.28;93884.44;5043209;28;20378;-46
2021/03/26 03:13:44;;;;;;;0.80;0.80;;;;;;;-3.53;68.88;93887.72;5030741;28;20024;-47
2021/03/26 03:16:18;;;;;;;0.88;0.88;;;;;;;-3.71;68.30;93892.34;5038551;28;20033;-44
2021/03/26 03:18:58;;;;;;;0.65;0.65;;;;;;;-3.84;69.10;93895.19;5040605;28;20032;-47
2021/03/26 03:21:30;;;;;;;0.20;0.20;;;;;;;-3.92;68.60;93889.28;5032044;28;20061;-50
2021/03/26 03:24:09;;;;;;;0.52;0.52;;;;;;;-3.92;68.73;93899.34;5040402;28;20490;-50
2021/03/26 03:26:45;;;;;;;4.47;1.98;;;;;;;-4.04;68.90;93897.50;5040613;28;20084;-47
2021/03/26 03:29:34;;;;;;;0.20;0.20;;;;;;;-4.25;68.49;93901.03;5030643;28;20565;-47
2021/03/26 03:32:35;;;;;;;0.63;0.63;;;;;;;-4.15;67.95;93907.94;5039567;28;20041;-49
2021/03/26 03:35:41;;;;;;;0.30;0.30;;;;;;;-4.21;68.27;93907.78;5042754;28;20021;-47
2021/03/26 03:38:24;;;;;;;0.20;0.20;;;;;;;-4.21;68.16;93909.72;5052601;28;20033;-46
2021/03/26 03:40:56;;;;;;;0.20;0.20;;;;;;;-4.27;68.34;93919.59;5033887;28;20049;-47
2021/03/26 03:43:42;;;;;;;0.85;0.85;;;;;;;-4.34;69.77;93909.06;5030190;28;20466;-45
2021/03/26 03:46:24;;;;;;;0.45;0.45;;;;;;;-4.24;70.47;93918.69;5038662;28;20029;-45
2021/03/26 03:49:05;;;;;;;0.20;0.20;;;;;;;-4.37;69.24;93923.41;5042289;28;20103;-46
2021/03/26 03:51:59;;;;;;;0.20;0.20;;;;;;;-4.28;68.92;93926.16;5030165;28;20058;-48
2021/03/26 03:54:34;;;;;;;0.55;0.55;;;;;;;-4.59;69.75;93922.72;5039206;28;20063;-48
2021/03/26 03:57:10;;;;;;;0.32;0.32;;;;;;;-4.45;69.86;93928.31;5046700;28;20032;-47
2021/03/26 03:59:40;;;;;;;0.30;0.30;;;;;;;-4.32;69.44;93931.69;5030775;28;20086;-47
2021/03/26 04:02:21;;;;;;;0.98;0.77;;;;;;;-4.48;69.68;93933.84;5038382;28;20045;-48
2021/03/26 04:05:06;;;;;;;0.35;0.35;;;;;;;-4.43;68.24;93917.09;5036213;28;20033;-50
2021/03/26 04:07:42;;;;;;;0.40;0.40;;;;;;;-4.46;68.85;93932.19;5031208;28;20043;-47
2021/03/26 04:10:13;;;;;;;2.70;2.55;;;;;;;-4.46;68.36;93937.59;5038364;28;20032;-48
2021/03/26 04:12:41;;;;;;;0.80;0.80;;;;;;;-4.50;69.01;93933.53;5038998;28;20039;-48
2021/03/26 04:15:10;;;;;;;0.40;0.40;;;;;;;-4.68;68.78;93934.91;5030806;28;20025;-49
2021/03/26 04:17:39;;;;;;;1.65;1.55;;;;;;;-4.76;69.38;93930.97;5042736;28;20021;-48
2021/03/26 04:20:35;;;;;;;0.52;0.52;;;;;;;-4.91;70.53;93932.66;5038129;28;20029;-48
2021/03/26 04:23:14;;;;;;;0.52;0.52;;;;;;;-4.66;70.30;93943.31;5027679;28;20029;-48
2021/03/26 04:25:42;;;;;;;0.50;0.50;;;;;;;-4.66;69.55;93937.19;5031426;28;20459;-47
2021/03/26 04:28:28;;;;;;;1.35;1.25;;;;;;;-4.80;70.57;93935.75;5039386;28;20468;-48
2021/03/26 04:30:57;;;;;;;0.20;0.20;;;;;;;-4.71;69.81;93946.56;5040703;28;20082;-48
2021/03/26 04:33:23;;;;;;;2.45;2.35;;;;;;;-4.68;69.42;93939.56;5043512;28;20171;-49
2021/03/26 04:35:50;;;;;;;0.98;0.98;;;;;;;-4.55;69.62;93950.25;5027460;28;20545;-49
2021/03/26 04:38:25;;;;;;;0.43;0.43;;;;;;;-4.71;68.96;93954.66;5027112;28;20029;-49
2021/03/26 04:40:57;;;;;;;0.85;0.85;;;;;;;-4.82;68.75;93946.19;5041575;28;20515;-48
2021/03/26 04:43:55;;;;;;;0.65;0.65;;;;;;;-4.83;68.59;93946.66;5029386;28;20026;-47
2021/03/26 04:46:35;;;;;;;1.25;1.13;;;;;;;-4.74;68.39;93947.44;5035956;28;20033;-46
2021/03/26 04:49:07;;;;;;;0.30;0.30;;;;;;;-4.82;69.18;93954.28;5041565;28;20018;-49
2021/03/26 04:51:38;;;;;;;1.55;0.60;;;;;;;-4.67;67.98;93955.28;5115102;28;20557;-47
2021/03/26 04:54:27;;;;;;;1.85;1.70;;;;;;;-4.76;69.83;93935.59;5039247;28;20051;-49
2021/03/26 04:57:19;;;;;;;0.47;0.47;;;;;;;-4.55;69.07;93959.09;5041776;28;20480;-49
2021/03/26 04:59:59;;;;;;;4.88;4.45;;;;;;;-4.38;69.98;93957.72;5032330;28;20048;-51
2021/03/26 05:02:25;;;;;;;4.65;4.32;;;;;;;-4.27;69.21;93965.41;5035333;28;20535;-48
2021/03/26 05:04:53;;;;;;;1.15;1.15;;;;;;;-4.29;67.61;93970.50;5041299;28;20029;-46
2021/03/26 05:07:23;;;;;;;1.73;1.63;;;;;;;-4.28;66.61;93951.16;5029170;28;20041;-50
2021/03/26 05:09:52;;;;;;;1.90;1.85;;;;;;;-4.17;66.94;93977.72;5040086;28;20092;-48
2021/03/26 05:12:21;;;;;;;1.73;1.65;;;;;;;-4.11;68.56;93978.66;5033214;28;20159;-52
2021/03/26 05:14:52;;;;;;;0.90;0.75;;;;;;;-4.25;68.37;93971.09;5037660;28;20108;-45
2021/03/26 05:17:21;;;;;;;0.85;0.85;;;;;;;-3.96;69.04;93979.63;5037495;28;20479;-44
2021/03/26 05:20:00;;;;;;;0.22;0.22;;;;;;;-3.67;68.16;93980.06;5035663;28;20044;-44
2021/03/26 05:22:43;;;;;;;1.08;1.08;;;;;;;-3.52;66.89;93978.31;5035722;28;20028;-43
2021/03/26 05:25:14;;;;;;;0.40;0.40;;;;;;;-3.52;65.74;93989.09;5034739;28;20060;-45
2021/03/26 05:27:39;;;;;;;0.40;0.40;;;;;;;-3.35;65.96;93993.03;5037047;28;20064;-43
2021/03/26 05:30:06;;;;;;;1.38;1.38;;;;;;;-3.24;66.02;93990.66;5036326;28;20606;-43
2021/03/26 05:32:44;;;;;;;1.92;1.83;;;;;;;-3.08;65.83;93989.66;5037822;28;20124;-44
2021/03/26 05:35:21;;;;;;;1.05;0.98;;;;;;;-2.82;65.51;93992.84;5028108;28;20100;-44
2021/03/26 05:37:53;;;;;;;10.85;2.95;;;;;;;-2.52;65.49;93987.28;5042442;28;20509;-43
2021/03/26 05:40:43;;;;;;;1.60;1.13;;;;;;;-2.09;64.87;93996.97;5040003;28;20085;-45
2021/03/26 05:43:21;;;;;;;3.42;2.38;;;;;;;-1.81;64.79;93995.69;5033092;28;20029;-44
2021/03/26 05:46:04;;;;;;;6.82;6.30;;;;;;;-1.89;64.11;93999.19;5034139;28;20498;-44
2021/03/26 05:48:40;;;;;;;2.40;1.90;;;;;;;-1.67;64.15;93999.72;5037288;28;20025;-46
2021/03/26 05:51:22;;;;;;;1.52;1.48;;;;;;;-1.17;63.98;94003.56;5043702;28;20025;-45
2021/03/26 05:53:59;;;;;;;2.90;2.67;;;;;;;-0.69;61.18;93993.47;5034195;28;20032;-43
2021/03/26 05:56:32;;;;;;;3.72;3.53;;;;;;;-0.25;60.57;93997.03;5037604;28;20032;-43
2021/03/26 05:59:22;;;;;;;10.82;7.03;;;;;;;0.06;58.53;93993.88;5042606;28;20129;-42
2021/03/26 06:01:57;;;;;;;8.88;7.40;;;;;;;0.77;57.63;93997.75;5034594;28;20056;-46
2021/03/26 06:04:41;;;;;;;4.03;3.70;;;;;;;1.24;56.64;94001.31;5044796;28;20048;-47
2021/03/26 06:07:09;;;;;;;6.32;5.47;;;;;;;1.68;56.11;94001.88;5028347;28;20171;-46
2021/03/26 06:10:13;;;;;;;3.10;2.92;;;;;;;2.19;54.34;94012.06;5032340;28;20572;-48
2021/03/26 06:13:21;;;;;;;1.73;1.67;;;;;;;2.67;52.90;94007.53;5032555;28;20047;-44
2021/03/26 06:16:20;;;;;;;0.77;0.77;;;;;;;3.15;53.19;94007.59;5033574;28;20045;-45
2021/03/26 06:18:54;;;;;;;2.05;1.92;;;;;;;3.87;50.10;93999.00;5034489;28;20061;-48
2021/03/26 06:21:28;;;;;;;1.65;1.55;;;;;;;4.79;47.98;94010.56;5037479;28;20100;-49
2021/03/26 06:24:24;;;;;;;2.08;1.80;;;;;;;5.89;44.36;94014.38;5029593;28;20037;-48
2021/03/26 06:27:01;;;;;;;1.95;1.75;;;;;;;6.57;43.29;94010.72;5028043;28;20025;-56
2021/03/26 06:29:41;;;;;;;2.22;2.13;;;;;;;7.37;41.27;94011.81;5038633;28;20053;-47
2021/03/26 06:32:48;;;;;;;2.75;2.50;;;;;;;8.21;38.41;94017.13;5034359;28;20029;-48
2021/03/26 06:35:46;;;;;;;3.35;3.03;;;;;;;8.94;38.35;94017.63;5033023;28;20049;-55
2021/03/26 06:38:23;;;;;;;1.73;1.63;;;;;;;9.35;36.48;94017.22;5031641;28;20489;-51
2021/03/26 06:41:13;;;;;;;2.92;2.40;;;;;;;9.25;36.32;94013.38;5041578;28;20028;-52
2021/03/26 06:44:07;;;;;;;3.08;2.47;;;;;;;10.66;34.31;94015.16;5032370;28;20035;-49
2021/03/26 06:46:50;;;;;;;4.95;4.50;;;;;;;11.92;32.71;94018.13;5034864;28;20045;-50
2021/03/26 06:49:48;;;;;;;9.18;8.23;;;;;;;13.08;31.14;94028.63;5043207;28;20033;-46
2021/03/26 06:52:26;;;;;;;5.40;3.83;;;;;;;13.55;28.91;94026.13;5033607;28;20022;-45
2021/03/26 06:55:08;;;;;;;2.63;2.33;;;;;;;14.01;27.00;94034.44;5042033;28;20033;-46
2021/03/26 06:57:39;;;;;;;3.50;2.75;;;;;;;14.44;28.39;94029.34;5030930;28;20032;-45
2021/03/26 07:00:26;;;;;;;4.68;3.42;;;;;;;15.40;25.69;94027.25;5037899;28;20121;-46
2021/03/26 07:03:10;;;;;;;4.47;2.50;;;;;;;16.00;25.81;94032.38;5041330;28;20029;-44
2021/03/26 07:06:01;;;;;;;2.22;1.73;;;;;;;17.11;24.90;94041.41;5034126;28;20032;-46
2021/03/26 07:08:37;;;;;;;3.75;2.67;;;;;;;17.58;23.99;94037.44;5068380;27;20033;-50
2021/03/26 07:11:17;;;;;;;3.40;2.47;;;;;;;17.90;23.27;94029.50;5039278;28;20068;-45
2021/03/26 07:13:58;;;;;;;3.25;3.00;;;;;;;18.60;23.17;94033.34;5026990;28;20041;-45
2021/03/26 07:16:38;;;;;;;1.50;1.38;;;;;;;18.99;21.49;94039.69;5038755;28;20028;-47
2021/03/26 07:19:14;;;;;;;3.65;1.88;;;;;;;19.05;22.72;94046.44;5037880;28;20033;-45
2021/03/26 07:21:58;;;;;;;1.50;1.40;;;;;;;19.71;21.48;94038.53;5045554;28;20104;-51
2021/03/26 07:24:51;;;;;;;0.80;0.80;;;;;;;19.29;20.46;94041.84;5040622;28;20025;-51
2021/03/26 07:27:50;;;;;;;3.20;2.25;;;;;;;20.11;21.29;94041.31;5036051;28;20090;-51
2021/03/26 07:30:50;;;;;;;1.45;1.27;;;;;;;20.94;19.62;94042.69;5040864;28;20037;-46
2021/03/26 07:33:18;;;;;;;1.77;1.67;;;;;;;20.91;19.65;94041.09;5030308;28;20034;-50
2021/03/26 07:36:05;;;;;;;0.73;0.73;;;;;;;21.23;19.61;94048.09;5041370;28;20093;-46
2021/03/26 07:38:40;;;;;;;1.95;1.65;;;;;;;21.52;18.75;94045.00;5034286;28;20023;-48
2021/03/26 07:41:26;;;;;;;1.85;1.70;;;;;;;21.98;19.08;94045.13;5037406;28;20390;-46
2021/03/26 07:44:02;;;;;;;2.95;1.17;;;;;;;22.16;18.39;94046.22;5041972;28;20104;-46
2021/03/26 07:46:53;;;;;;;1.80;1.67;;;;;;;22.47;17.85;94055.16;5036639;28;20607;-47
2021/03/26 07:49:38;;;;;;;2.30;1.60;;;;;;;22.78;17.40;94049.25;5034514;28;20026;-46
2021/03/26 07:52:21;;;;;;;0.75;0.75;;;;;;;23.05;17.59;94057.88;5036082;28;20028;-47
2021/03/26 07:55:29;;;;;;;1.27;1.10;;;;;;;22.49;17.68;94058.09;5037249;28;20053;-45
2021/03/26 07:58:07;;;;;;;2.45;1.50;;;;;;;22.82;17.51;94057.19;5021927;28;20049;-47
2021/03/26 08:01:16;;;;;;;1.27;1.20;;;;;;;22.92;16.95;94060.59;5033079;28;20038;-44
2021/03/26 08:03:42;;;;;;;1.27;1.17;;;;;;;23.56;17.50;94053.03;4999247;28;20269;-45
2021/03/26 08:06:22;;;;;;;1.95;1.80;;;;;;;23.12;15.33;94062.50;5028930;28;20043;-45
2021/03/26 08:09:25;;;;;;;2.15;1.95;;;;;;;22.05;18.33;94069.44;5031894;28;20061;-46
2021/03/26 08:11:53;;;;;;;2.05;1.95;;;;;;;22.14;17.69;94065.78;5027676;28;20040;-45
2021/03/26 08:14:46;;;;;;;4.15;1.90;;;;;;;22.33;17.25;94070.44;5037711;28;20039;-46
2021/03/26 08:17:32;;;;;;;2.35;2.15;;;;;;;22.64;17.93;94079.38;5041053;28;20021;-45
2021/03/26 08:20:28;;;;;;;3.78;1.75;;;;;;;22.98;17.10;94075.00;5032480;28;20041;-45
2021/03/26 08:23:31;;;;;;;2.97;2.70;;;;;;;23.01;17.79;94074.53;5045540;28;20033;-49
2021/03/26 08:25:59;;;;;;;4.47;1.90;;;;;;;22.89;17.35;94081.56;5025484;28;20037;-47
2021/03/26 08:28:25;;;;;;;2.40;1.40;;;;;;;22.99;18.02;94079.31;5033213;28;20037;-48
2021/03/26 08:30:53;;;;;;;3.30;2.42;;;;;;;23.97;17.68;94084.19;5040344;28;20039;-47
2021/03/26 08:34:03;;;;;;;3.80;2.53;;;;;;;23.55;15.76;94079.75;5043695;28;20402;-53
2021/03/26 08:36:34;;;;;;;8.80;4.55;;;;;;;23.51;16.62;94082.34;5033432;28;20430;-48
2021/03/26 08:39:28;;;;;;;2.83;2.47;;;;;;;24.03;16.83;94085.25;5031042;28;20460;-52
2021/03/26 08:42:04;;;;;;;2.00;1.90;;;;;;;23.63;15.50;94085.81;5025761;28;20716;-53
2021/03/26 08:44:32;;;;;;;2.42;2.17;;;;;;;24.07;16.39;94085.47;5027614;28;20013;-53
2021/03/26 08:46:58;;;;;;;2.20;2.10;;;;;;;24.10;15.80;94089.16;5040030;28;20560;-51
2021/03/26 08:49:24;;;;;;;3.97;3.50;;;;;;;23.88;16.37;94082.28;5031635;28;20017;-54
2021/03/26 08:52:04;;;;;;;3.03;2.28;;;;;;;23.09;17.54;94086.25;5044068;28;20421;-55
2021/03/26 08:55:00;;;;;;;3.97;1.63;;;;;;;23.78;17.43;94085.25;5035167;28;20025;-49
2021/03/26 08:57:44;;;;;;;2.72;1.38;;;;;;;24.26;17.02;94087.19;5045368;28;20036;-51
2021/03/26 09:00:34;;;;;;;2.22;2.08;;;;;;;23.68;16.58;94084.72;5041783;28;20451;-51
2021/03/26 09:03:26;;;;;;;4.20;1.75;;;;;;;23.66;17.36;94084.59;5040669;28;20567;-49
2021/03/26 09:06:00;;;;;;;1.42;1.35;;;;;;;23.32;17.52;94093.91;5041823;28;20573;-52
2021/03/26 09:08:42;;;;;;;5.18;2.97;;;;;;;23.22;18.68;94093.31;5044149;28;20037;-49
2021/03/26 09:11:29;;;;;;;5.25;3.08;;;;;;;23.52;17.84;94086.59;5028016;28;20044;-49
2021/03/26 09:14:02;;;;;;;3.60;1.52;;;;;;;23.95;18.24;94081.97;5041843;28;20498;-52
2021/03/26 09:16:31;;;;;;;2.78;2.13;;;;;;;24.56;17.96;94090.91;5045315;28;20137;-50
2021/03/26 09:19:16;;;;;;;1.85;1.75;;;;;;;24.44;18.11;94081.78;5044671;28;20040;-47
2021/03/26 09:21:49;;;;;;;1.90;1.70;;;;;;;24.62;18.88;94086.28;5028802;28;20517;-47
2021/03/26 09:24:31;;;;;;;3.13;2.83;;;;;;;24.50;16.78;94084.91;5039771;28;20037;-55
2021/03/26 09:27:18;;;;;;;4.70;2.17;;;;;;;24.42;16.85;94076.03;5038143;28;20040;-53
2021/03/26 09:30:09;;;;;;;1.75;1.60;;;;;;;24.11;17.25;94082.13;5037627;28;20033;-59
2021/03/26 09:33:08;;;;;;;7.20;2.70;;;;;;;23.51;17.28;94070.31;5037561;28;20540;-48
2021/03/26 09:35:36;;;;;;;2.47;2.17;;;;;;;23.83;19.01;94081.31;5039184;28;20157;-46
2021/03/26 09:38:06;;;;;;;2.50;2.30;;;;;;;23.80;18.39;94085.38;5037419;28;20394;-48
2021/03/26 09:40:48;;;;;;;1.15;1.10;;;;;;;23.38;18.68;94077.38;5041304;28;20260;-49
2021/03/26 09:44:05;;;;;;;2.08;1.80;;;;;;;23.53;19.05;94081.72;5037471;28;20140;-50
2021/03/26 09:46:44;;;;;;;2.53;2.33;;;;;;;24.29;18.72;94082.38;5015724;28;20028;-49
2021/03/26 09:49:30;;;;;;;2.90;2.63;;;;;;;23.98;18.29;94083.53;5038325;28;20409;-51
2021/03/26 09:52:14;;;;;;;2.70;2.17;;;;;;;24.34;18.32;94086.91;5038866;28;20824;-49
2021/03/26 09:54:42;;;;;;;2.13;2.03;;;;;;;23.87;17.88;94077.97;5039920;28;20124;-58
2021/03/26 09:57:22;;;;;;;1.50;1.40;;;;;;;24.25;18.27;94085.00;5028053;28;20512;-59
2021/03/26 10:00:03;;;;;;;2.50;1.75;;;;;;;23.75;18.47;94080.13;5043285;28;20055;-50
2021/03/26 10:02:34;;;;;;;3.55;2.50;;;;;;;24.09;19.16;94059.47;5035678;28;20081;-49
2021/03/26 10:05:02;;;;;;;3.38;2.28;;;;;;;24.04;17.70;94081.06;5038263;28;20033;-48
2021/03/26 10:07:39;;;;;;;2.50;2.28;;;;;;;23.87;17.95;94075.16;5040674;28;20032;-47
2021/03/26 10:13:12;;;;;;;1.67;1.58;;;;;;;23.54;17.45;94072.63;5038870;28;20033;-51
2021/03/26 10:16:01;;;;;;;1.58;1.13;;;;;;;23.20;18.40;94068.59;5037276;28;20036;-48
2021/03/26 10:18:38;;;;;;;1.65;1.55;;;;;;;23.75;17.21;94063.97;5030985;28;20399;-47
2021/03/26 10:21:03;;;;;;;1.52;1.10;;;;;;;24.19;18.92;94068.47;5037482;28;20033;-47
2021/03/26 10:23:49;;;;;;;2.33;1.73;;;;;;;24.37;17.49;94063.78;5036378;28;20033;-48
2021/03/26 10:26:18;;;;;;;2.40;1.70;;;;;;;24.06;17.36;94072.00;5041631;28;20191;-46
2021/03/26 10:28:43;;;;;;;2.75;1.55;;;;;;;23.76;18.47;94073.13;5037610;28;20065;-44
2021/03/26 10:31:12;;;;;;;2.25;1.80;;;;;;;23.67;17.82;94076.88;5040281;28;20064;-51
2021/03/26 10:33:51;;;;;;;3.17;1.67;;;;;;;23.33;18.33;94070.78;5039644;28;20032;-46
2021/03/26 10:36:20;;;;;;;1.52;1.30;;;;;;;23.77;19.12;94066.88;5040895;28;20497;-48
2021/03/26 10:39:11;;;;;;;6.55;1.58;;;;;;;23.56;18.13;94066.38;5035028;28;20406;-52
2021/03/26 10:41:39;;;;;;;2.92;1.17;;;;;;;23.16;18.96;94070.44;5045569;28;20033;-49
2021/03/26 10:44:14;;;;;;;1.38;1.25;;;;;;;23.02;19.32;94072.47;5041314;28;20036;-46
2021/03/26 10:46:43;;;;;;;1.67;1.58;;;;;;;22.94;20.13;94064.25;5037475;27;20054;-47
2021/03/26 10:49:36;;;;;;;1.98;1.85;;;;;;;23.21;18.90;94055.25;5041505;28;20061;-48
2021/03/26 10:52:08;;;;;;;3.00;2.10;;;;;;;23.67;16.53;94060.66;5034112;28;20041;-46
2021/03/26 10:54:49;;;;;;;1.80;1.38;;;;;;;22.81;18.59;94066.97;5037826;28;20587;-50
2021/03/26 10:57:22;;;;;;;1.30;1.08;;;;;;;21.54;21.33;94062.00;5040546;28;20032;-49
2021/03/26 10:59:53;;;;;;;1.17;1.08;;;;;;;21.24;19.43;94060.81;5032660;28;20052;-46
2021/03/26 11:02:46;;;;;;;2.65;1.50;;;;;;;21.90;20.64;94064.28;5037755;28;20519;-48
2021/03/26 11:05:26;;;;;;;1.60;1.05;;;;;;;21.91;17.96;94051.72;5039182;28;20089;-47
2021/03/26 11:07:57;;;;;;;1.92;1.50;;;;;;;21.47;21.36;94054.53;5040603;28;20025;-48
2021/03/26 11:10:26;;;;;;;1.60;1.40;;;;;;;21.01;21.41;94052.25;5038237;28;20554;-46
2021/03/26 11:12:55;;;;;;;0.60;0.60;;;;;;;20.42;19.27;94050.47;5033117;28;20426;-46
2021/03/26 11:15:24;;;;;;;;;;;;;;;20.30;21.20;94052.44;5030085;28;20045;-50
2021/03/26 11:18:08;;;;;;;1.25;1.23;;;;;;;20.87;22.12;94054.16;5046461;28;20312;-48
2021/03/26 11:20:43;;;;;;;0.82;0.82;;;;;;;21.68;20.03;94054.44;5036859;28;20120;-52
2021/03/26 11:23:13;;;;;;;1.20;1.10;;;;;;;21.28;18.46;94058.25;5040048;28;20030;-46
2021/03/26 11:25:42;;;;;;;1.08;1.05;;;;;;;21.22;18.74;94052.25;5036542;28;20111;-46
2021/03/26 11:28:37;;;;;;;;;;;;;;;21.21;19.11;94052.84;5048096;28;20471;-46
2021/03/26 11:31:32;;;;;;;1.20;1.10;;;;;;;21.02;18.73;94037.63;5080271;28;19912;-51
2021/03/26 11:34:08;;;;;;;0.98;0.95;;;;;;;20.83;19.52;94037.03;5039230;28;20098;-51
2021/03/26 11:36:40;;;;;;;2.30;1.95;;;;;;;20.70;21.46;94040.38;5057259;28;20037;-47
2021/03/26 11:39:19;;;;;;;1.42;1.33;;;;;;;20.31;19.09;94032.19;5043080;28;20059;-46
2021/03/26 11:41:47;;;;;;;1.80;1.48;;;;;;;20.23;22.55;94040.06;5039395;28;20025;-51
2021/03/26 11:44:14;;;;;;;3.30;1.52;;;;;;;19.36;20.83;94027.69;5039544;28;20078;-47
2021/03/26 11:46:43;;;;;;;1.05;0.95;;;;;;;19.20;22.02;94028.59;5036193;28;20386;-48
2021/03/26 11:49:19;;;;;;;2.50;1.63;;;;;;;19.16;17.74;94026.25;5051771;28;20035;-50
2021/03/26 11:52:08;;;;;;;0.95;0.95;;;;;;;19.18;19.67;94026.41;5038167;28;20029;-47
2021/03/26 11:55:14;;;;;;;0.90;0.77;;;;;;;18.51;20.65;94028.47;5038122;28;20043;-48
2021/03/26 11:58:03;;;;;;;1.17;1.08;;;;;;;18.22;23.54;94025.59;5021894;28;20037;-49
2021/03/26 12:00:33;;;;;;;3.08;2.70;;;;;;;18.29;22.16;94021.19;5039009;28;20029;-53
2021/03/26 12:03:26;;;;;;;1.60;0.77;;;;;;;17.84;22.38;94020.66;5032289;28;20525;-51
2021/03/26 12:06:19;;;;;;;1.05;0.98;;;;;;;17.80;23.14;94020.31;5061704;28;20025;-57
2021/03/26 12:08:58;;;;;;;5.68;2.45;;;;;;;17.50;23.95;94020.03;5047469;28;20027;-47
2021/03/26 12:11:35;;;;;;;0.85;0.85;;;;;;;17.33;22.47;94023.63;5030144;28;20402;-47
2021/03/26 12:14:06;;;;;;;0.40;0.38;;;;;;;17.02;22.61;94019.78;5035645;28;20029;-47
2021/03/26 12:16:37;;;;;;;1.13;1.08;;;;;;;16.70;21.62;94015.13;5038598;28;20036;-50
2021/03/26 12:19:05;;;;;;;0.85;0.85;;;;;;;16.24;23.47;94020.41;5041166;28;20505;-49
2021/03/26 12:21:34;;;;;;;1.67;1.58;;;;;;;15.64;25.16;94009.81;5028100;28;20016;-49